EHDB weather

[Duplicate] KNMI
De Bilt, Utrecht, Netherlands

Public forecast

Using degrees Celsius for public forecast. Weather courtesy of forecast.io.

METAR (pilot weather report)

Closest report is Amsterdam Airport Schiphol, 19.7 nm (36.5 km) NW. Retrieved 2017/11/24 08:25 UTC (0 seconds ago):

EHAM 240825Z 24004KT 210V270 9999 FEW025 07/05 Q1007 NOSIG

TAF (pilot weather forecast)

Closest forecast is Amsterdam Airport Schiphol, 19.7 nm (36.5 km) NW. Retrieved 2017/11/24 06:28 UTC (2 hours ago):

TAF EHAM 240457Z 2406/2512 25005KT 9999 SCT020 BKN030 PROB30 TEMPO 2406/2415 7000 -RA SHRA FEW015CB BKN018 PROB30 TEMPO 2422/2503 7000 -RA